Portada
METAR-TAF:

METAR-TAF

Aeroports :

Aeroport Internacional d'Osaka

Osaka, Japó

latitud: 34-47N, longitud: 135-27E, altitud: 12 m

Observació

L'informe es va fer fa 1 hora i 7 minuts, a les 21:00 UTC
Vent 2 kt del Est/Nord-Est
Temperatura 8°C
Humitat 87%
Pressió 1019 hPa
Visibilitat 10 km o més
Escasses núvols a una alçada de 3000 ft

METAR: RJOO 172100Z 07002KT 9999 FEW030 08/06 Q1019 RMK 1CU030 A3011

Hora: 07:07 (22:07 UTC)

Pronòstic

L'informe es va fer fa 5 hores i 2 minuts, a les 17:05 UTC
Pronòstic vàlid del 17 a les 18 UTC al 19 a les 00 UTC
Vent 4 kt del Nord-Oest
Visibilitat 10 km o més
Escasses núvols a una alçada de 3000 ft
Evolucionant progressivament
l' 17 a les 22 UTC al 18 a les 00 UTC
Vent 5 kt del Est
Evolucionant progressivament
l' 18 a les 06 UTC al 18 a les 09 UTC
Vent 4 kt del Nord-Oest

TAF: RJOO 171705Z 1718/1900 32004KT 9999 FEW030 BECMG 1722/1800 08005KT BECMG 1806/1809 32004KT

Observacions i pronòstics meteorològics de més de 4000 aeroports (METAR i TAF).

Les estacions disponibles són els punts grocs i vermells al mapa.

Posi el ratolí al punt desitjat per veure el nom de l'estació.

Feu clic per veure les observacions i els pronòstics meteorològics.

Per canviar el mapa: feu clic els botons verds amb una creu de color negre per apropar; al botó verd amb un guió per allunyar la imatge; o en les fletxes verdes per a mapes adjacents.


METAR-TAF: